createdAt,value
2024-02-12T00:37:10.733Z,42.15
2024-02-12T01:09:37.740Z,39.60
2024-02-12T01:16:39.305Z,39.65
2024-02-12T01:23:40.812Z,39.30
2024-02-12T01:47:45.960Z,43.53
2024-02-12T01:54:50.752Z,45.38
2024-02-12T02:01:53.707Z,40.58
2024-02-12T02:17:18.109Z,42.25
2024-02-12T02:32:42.158Z,41.17
2024-02-12T02:39:43.681Z,52.72
2024-02-12T02:55:28.320Z,52.35
2024-02-12T03:02:31.357Z,60.20
2024-02-12T03:09:32.845Z,40.75
2024-02-12T03:16:34.332Z,45.47
2024-02-12T03:23:35.779Z,44.00
2024-02-12T03:30:37.293Z,50.03
2024-02-12T03:37:38.753Z,43.97
2024-02-12T03:44:43.495Z,51.50
2024-02-12T04:00:19.421Z,40.53
2024-02-12T04:24:10.792Z,43.78
2024-02-12T04:31:15.847Z,38.35
2024-02-12T04:55:01.681Z,44.75
2024-02-12T05:02:03.693Z,48.78
2024-02-12T05:17:52.958Z,40.97
2024-02-12T05:24:54.477Z,44.95
2024-02-12T05:40:36.767Z,53.35
2024-02-12T05:47:38.327Z,49.67
2024-02-12T06:03:21.783Z,44.45
2024-02-12T06:10:23.248Z,40.80
2024-02-12T06:34:08.731Z,41.88
2024-02-12T06:41:11.401Z,46.90
2024-02-12T06:48:13.160Z,46.45
2024-02-12T06:55:16.810Z,47.65
2024-02-12T07:02:20.352Z,45.72
2024-02-12T07:09:22.932Z,41.00
2024-02-12T07:41:39.047Z,51.80
2024-02-12T07:48:41.471Z,50.35
2024-02-12T07:55:43.410Z,52.67
2024-02-12T08:02:48.401Z,52.33
2024-02-12T08:26:33.909Z,36.45
2024-02-12T08:33:35.981Z,42.38
2024-02-12T08:49:03.180Z,35.42
2024-02-12T08:56:05.533Z,29.52
2024-02-12T09:03:07.500Z,30.08
2024-02-12T09:10:10.679Z,33.35
2024-02-12T09:17:31.112Z,28.15
2024-02-12T09:24:33.724Z,55.72
2024-02-12T09:31:41.784Z,25.80
2024-02-12T09:38:43.647Z,24.48
2024-02-12T09:54:09.273Z,27.55
2024-02-12T10:01:12.037Z,26.23
2024-02-12T10:08:25.074Z,25.15
2024-02-12T10:15:26.757Z,27.27
2024-02-12T10:22:46.874Z,23.95
2024-02-12T10:30:16.755Z,25.15
2024-02-12T10:37:20.345Z,25.85
2024-02-12T10:44:28.216Z,26.38
2024-02-12T10:51:29.928Z,25.55
2024-02-12T10:58:32.248Z,27.02
2024-02-12T11:05:38.783Z,26.63
2024-02-12T11:12:46.582Z,29.30
2024-02-12T11:19:50.088Z,30.50
2024-02-12T11:35:15.291Z,28.27
2024-02-12T11:42:21.587Z,25.88
2024-02-12T11:49:23.105Z,25.75
2024-02-12T11:56:44.654Z,21.90
2024-02-12T12:03:46.270Z,23.60
2024-02-12T12:10:48.532Z,20.80
2024-02-12T12:17:50.136Z,18.55
2024-02-12T12:24:51.620Z,19.77
2024-02-12T12:40:20.737Z,17.00
2024-02-12T12:47:22.525Z,15.77
2024-02-12T12:54:24.065Z,16.60
2024-02-12T13:01:34.965Z,20.40
2024-02-12T13:08:36.964Z,16.50
2024-02-12T13:15:42.268Z,13.77
2024-02-12T13:22:57.274Z,14.23
2024-02-12T13:29:58.756Z,14.05
2024-02-12T13:37:09.010Z,16.30
2024-02-12T13:44:27.024Z,21.80
2024-02-12T13:51:28.562Z,21.83
2024-02-12T14:06:52.529Z,22.83
2024-02-12T14:30:38.415Z,23.48
2024-02-12T14:37:40.318Z,21.77
2024-02-12T15:01:27.642Z,22.75
2024-02-12T15:08:29.557Z,22.55
2024-02-12T15:15:33.715Z,26.95
2024-02-12T15:39:20.507Z,28.25
2024-02-12T15:46:22.640Z,26.05
2024-02-12T16:19:06.744Z,28.98
2024-02-12T16:26:11.158Z,31.52
2024-02-12T16:33:13.348Z,21.58
2024-02-12T16:40:14.919Z,17.85
2024-02-12T16:47:18.770Z,17.65
2024-02-12T17:02:43.373Z,20.95
2024-02-12T17:18:10.716Z,32.03
2024-02-12T17:25:17.314Z,34.28
2024-02-12T17:32:18.951Z,30.52
2024-02-12T17:39:24.291Z,29.45
2024-02-12T17:46:32.085Z,25.42
2024-02-12T17:53:33.640Z,29.80
2024-02-12T18:09:11.993Z,27.25
2024-02-12T18:16:13.458Z,24.30
2024-02-12T18:32:16.413Z,20.58
2024-02-12T18:39:21.182Z,19.17
2024-02-12T18:54:44.389Z,15.52
2024-02-12T19:01:52.515Z,16.95
2024-02-12T19:08:56.871Z,16.75
2024-02-12T19:15:58.376Z,19.88
2024-02-12T19:23:01.231Z,22.85
2024-02-12T19:30:12.857Z,18.15
2024-02-12T19:37:14.397Z,16.10
2024-02-12T19:44:17.448Z,19.67
2024-02-12T20:08:06.869Z,18.63
2024-02-12T20:15:12.885Z,24.25
2024-02-12T20:22:14.404Z,18.95
2024-02-12T20:29:15.874Z,22.25
2024-02-12T20:36:18.211Z,23.60
2024-02-12T20:43:20.285Z,19.35
2024-02-12T21:07:21.231Z,15.98
2024-02-12T21:14:24.380Z,16.58
2024-02-12T21:29:48.850Z,18.25
2024-02-12T21:36:50.921Z,16.92
2024-02-12T21:43:52.815Z,17.00
2024-02-12T21:50:54.340Z,18.67
2024-02-12T21:57:57.603Z,19.20
2024-02-12T22:05:02.231Z,20.08
2024-02-12T22:28:54.383Z,24.83
2024-02-12T22:35:56.648Z,22.67
2024-02-12T22:51:23.369Z,21.30
2024-02-12T23:40:33.412Z,28.98
